Time;durP1;ratioP1;P1;durP2;ratioP2;P2;SDS_P1;SDS_P2;PMS_P1;PMS_P2;Temp;Humidity;BMP_temperature;BMP_pressure;BME280_temperature;BME280_humidity;BME280_pressure;Samples;Min_cycle;Max_cycle;Signal;HPM_P1;HPM_P2
2021/09/10 00:00:50;;;;;;;;;;;24.50;49.70;;;;;;1556560;75;1071;-68
2021/09/10 00:02:51;;;;;;;;;;;24.50;49.70;;;;;;1554880;74;735;-69
2021/09/10 00:04:53;;;;;;;;;;;24.50;49.60;;;;;;1550696;74;797;-70
2021/09/10 00:06:55;;;;;;;;;;;24.50;49.60;;;;;;1565485;74;819;-67
2021/09/10 00:08:57;;;;;;;;;;;24.50;49.60;;;;;;1551242;74;1068;-68
2021/09/10 00:10:59;;;;;;;;;;;24.50;49.50;;;;;;1553408;74;748;-67
2021/09/10 00:13:01;;;;;;;;;;;24.50;49.30;;;;;;1553076;74;791;-67
2021/09/10 00:15:03;;;;;;;;;;;24.50;49.40;;;;;;1551658;75;762;-67
2021/09/10 00:17:05;;;;;;;;;;;24.50;49.20;;;;;;1555902;74;811;-69
2021/09/10 00:19:07;;;;;;;;;;;24.50;49.40;;;;;;1562678;74;1934;-67
2021/09/10 00:21:09;;;;;;;;;;;24.50;49.30;;;;;;1552610;74;770;-67
2021/09/10 00:23:12;;;;;;;;;;;24.50;49.40;;;;;;1553583;74;877;-69
2021/09/10 00:25:14;;;;;;;;;;;24.50;49.40;;;;;;1558032;74;807;-67
2021/09/10 00:27:16;;;;;;;;;;;24.50;49.40;;;;;;1556181;74;805;-69
2021/09/10 00:29:17;;;;;;;;;;;24.50;49.50;;;;;;1554839;74;1125;-69
2021/09/10 00:31:19;;;;;;;;;;;24.50;49.40;;;;;;1555300;75;696;-70
2021/09/10 00:33:21;;;;;;;;;;;24.50;49.40;;;;;;1552954;74;756;-70
2021/09/10 00:35:23;;;;;;;;;;;24.50;49.30;;;;;;1556313;74;888;-70
2021/09/10 00:37:25;;;;;;;;;;;24.50;49.20;;;;;;1551746;74;785;-69
2021/09/10 00:39:27;;;;;;;;;;;24.50;49.20;;;;;;1559864;74;1935;-65
2021/09/10 00:41:29;;;;;;;;;;;24.50;49.20;;;;;;1547736;74;735;-67
2021/09/10 00:43:31;;;;;;;;;;;24.50;49.20;;;;;;1552632;74;800;-66
2021/09/10 00:45:32;;;;;;;;;;;24.50;49.10;;;;;;1550195;74;726;-66
2021/09/10 00:47:34;;;;;;;;;;;24.50;49.10;;;;;;1547952;74;830;-66
2021/09/10 00:49:36;;;;;;;;;;;24.50;49.00;;;;;;1562590;74;1175;-67
2021/09/10 00:51:40;;;;;;;;;;;24.50;49.10;;;;;;1548430;74;751;-65
2021/09/10 00:53:42;;;;;;;;;;;24.50;49.00;;;;;;1555587;74;706;-67
2021/09/10 00:55:48;;;;;;;;;;;24.50;48.90;;;;;;1569740;74;716;-65
2021/09/10 00:57:48;;;;;;;;;;;24.50;48.90;;;;;;1570336;75;1253;-66
2021/09/10 00:59:50;;;;;;;;;;;24.50;48.70;;;;;;1568296;74;1934;-66
2021/09/10 01:01:51;;;;;;;;;;;24.50;48.80;;;;;;1567482;74;710;-66
2021/09/10 01:03:53;;;;;;;;;;;24.50;48.80;;;;;;1567645;74;665;-67
2021/09/10 01:05:57;;;;;;;;;;;24.40;48.80;;;;;;1566893;74;692;-67
2021/09/10 01:07:59;;;;;;;;;;;24.50;48.80;;;;;;1563504;75;738;-66
2021/09/10 01:10:01;;;;;;;;;;;24.50;48.70;;;;;;1546968;73;224829;-60
2021/09/10 01:12:03;;;;;;;;;;;24.40;48.70;;;;;;1498944;77;737;-59
2021/09/10 01:14:05;;;;;;;;;;;24.50;48.90;;;;;;1522740;76;1216;-59
2021/09/10 01:16:07;;;;;;;;;;;24.50;48.90;;;;;;1532589;76;776;-58
2021/09/10 01:18:09;;;;;;;;;;;24.40;48.60;;;;;;1537758;76;1953;-59
2021/09/10 01:20:11;;;;;;;;;;;24.40;48.70;;;;;;1541255;75;762;-61
2021/09/10 01:22:13;;;;;;;;;;;24.50;48.90;;;;;;1546413;76;815;-58
2021/09/10 01:24:15;;;;;;;;;;;24.50;48.80;;;;;;1537681;76;1126;-56
2021/09/10 01:26:17;;;;;;;;;;;24.50;48.80;;;;;;1533935;76;785;-57
2021/09/10 01:28:19;;;;;;;;;;;24.50;48.80;;;;;;1536157;76;733;-58
2021/09/10 01:30:22;;;;;;;;;;;24.40;48.50;;;;;;1546918;76;732;-60
2021/09/10 01:32:23;;;;;;;;;;;24.50;48.80;;;;;;1536399;76;785;-57
2021/09/10 01:34:25;;;;;;;;;;;24.50;48.80;;;;;;1527297;76;1111;-57
2021/09/10 01:36:27;;;;;;;;;;;24.40;48.70;;;;;;1535161;76;770;-56
2021/09/10 01:38:29;;;;;;;;;;;24.50;48.70;;;;;;1528662;76;1948;-59
2021/09/10 01:40:31;;;;;;;;;;;24.50;48.70;;;;;;1521468;76;795;-59
2021/09/10 01:42:33;;;;;;;;;;;24.40;48.60;;;;;;1537280;76;748;-58
2021/09/10 01:44:35;;;;;;;;;;;24.40;48.60;;;;;;1524996;76;1154;-59
2021/09/10 01:46:37;;;;;;;;;;;24.40;48.50;;;;;;1526917;76;788;-59
2021/09/10 01:48:38;;;;;;;;;;;24.40;48.60;;;;;;1534566;76;893;-59
2021/09/10 01:50:40;;;;;;;;;;;24.50;48.70;;;;;;1530731;76;809;-58
2021/09/10 01:52:42;;;;;;;;;;;24.50;48.80;;;;;;1541265;76;775;-57
2021/09/10 01:54:44;;;;;;;;;;;24.50;48.80;;;;;;1537418;75;1113;-56
2021/09/10 01:56:46;;;;;;;;;;;24.40;48.70;;;;;;1540572;75;751;-59
2021/09/10 01:58:48;;;;;;;;;;;24.50;48.80;;;;;;1531548;76;1933;-59
2021/09/10 02:00:50;;;;;;;;;;;24.40;48.70;;;;;;1527625;76;939;-58
2021/09/10 02:02:52;;;;;;;;;;;24.40;48.60;;;;;;1528238;76;759;-57
2021/09/10 02:04:54;;;;;;;;;;;24.40;48.40;;;;;;1536517;76;1049;-58
2021/09/10 02:06:55;;;;;;;;;;;24.40;48.50;;;;;;1528630;76;714;-57
2021/09/10 02:08:57;;;;;;;;;;;24.40;48.50;;;;;;1534197;76;695;-58
2021/09/10 02:10:59;;;;;;;;;;;24.40;48.40;;;;;;1536929;76;812;-56
2021/09/10 02:13:01;;;;;;;;;;;24.40;48.30;;;;;;1536091;76;1150;-58
2021/09/10 02:15:03;;;;;;;;;;;24.50;48.30;;;;;;1536256;76;757;-59
2021/09/10 02:17:05;;;;;;;;;;;24.40;48.20;;;;;;1534203;76;835;-57
2021/09/10 02:19:09;;;;;;;;;;;24.50;48.20;;;;;;1528054;76;1936;-58
2021/09/10 02:21:11;;;;;;;;;;;24.50;48.10;;;;;;1533979;76;718;-59
2021/09/10 02:23:13;;;;;;;;;;;24.40;48.00;;;;;;1541733;76;1132;-58
2021/09/10 02:25:15;;;;;;;;;;;24.40;48.00;;;;;;1527063;76;776;-59
2021/09/10 02:27:17;;;;;;;;;;;24.50;48.10;;;;;;1540582;76;810;-57
2021/09/10 02:29:18;;;;;;;;;;;24.40;47.80;;;;;;1533197;76;759;-58
2021/09/10 02:31:20;;;;;;;;;;;24.50;47.90;;;;;;1536985;76;789;-59
2021/09/10 02:33:22;;;;;;;;;;;24.40;47.80;;;;;;1537120;76;1086;-60
2021/09/10 02:35:24;;;;;;;;;;;24.40;47.80;;;;;;1532043;76;776;-59
2021/09/10 02:37:26;;;;;;;;;;;24.40;47.90;;;;;;1525829;76;777;-59
2021/09/10 02:39:28;;;;;;;;;;;24.40;47.90;;;;;;1534076;76;1938;-59
2021/09/10 02:41:30;;;;;;;;;;;24.50;47.90;;;;;;1533133;76;773;-58
2021/09/10 02:43:32;;;;;;;;;;;24.50;47.90;;;;;;1536773;76;1171;-60
2021/09/10 02:45:34;;;;;;;;;;;24.30;47.80;;;;;;1530869;76;747;-60
2021/09/10 02:47:35;;;;;;;;;;;24.40;47.70;;;;;;1536601;76;824;-59
2021/09/10 02:49:37;;;;;;;;;;;24.30;47.70;;;;;;1535816;76;958;-59
2021/09/10 02:51:39;;;;;;;;;;;24.40;47.80;;;;;;1536377;76;722;-59
2021/09/10 02:53:41;;;;;;;;;;;24.40;47.80;;;;;;1537185;76;1161;-60
2021/09/10 02:55:43;;;;;;;;;;;24.40;48.00;;;;;;1537495;76;778;-60
2021/09/10 02:57:45;;;;;;;;;;;24.40;48.20;;;;;;1532707;76;714;-60
2021/09/10 02:59:47;;;;;;;;;;;24.40;48.20;;;;;;1526381;76;1949;-60
2021/09/10 03:01:49;;;;;;;;;;;24.40;48.20;;;;;;1533025;76;856;-61
2021/09/10 03:03:50;;;;;;;;;;;24.40;48.20;;;;;;1538575;76;1184;-59
2021/09/10 03:05:52;;;;;;;;;;;24.40;48.20;;;;;;1545939;75;645;-59
2021/09/10 03:07:54;;;;;;;;;;;24.40;48.30;;;;;;1537454;76;743;-61
2021/09/10 03:09:56;;;;;;;;;;;24.30;48.40;;;;;;1540714;76;766;-60
2021/09/10 03:11:58;;;;;;;;;;;24.40;48.40;;;;;;1526750;76;729;-60
2021/09/10 03:14:00;;;;;;;;;;;24.40;48.40;;;;;;1534667;75;1165;-59
2021/09/10 03:16:02;;;;;;;;;;;24.40;48.50;;;;;;1525500;76;550;-60
2021/09/10 03:18:04;;;;;;;;;;;24.30;48.60;;;;;;1532914;76;698;-59
2021/09/10 03:20:06;;;;;;;;;;;24.40;48.70;;;;;;1530212;76;1941;-59
2021/09/10 03:22:08;;;;;;;;;;;24.40;48.80;;;;;;1526117;76;782;-59
2021/09/10 03:24:10;;;;;;;;;;;24.40;48.80;;;;;;1531377;76;1153;-61
2021/09/10 03:26:11;;;;;;;;;;;24.30;48.90;;;;;;1517380;76;703;-61
2021/09/10 03:28:13;;;;;;;;;;;24.40;48.90;;;;;;1531321;76;732;-61
2021/09/10 03:30:16;;;;;;;;;;;24.40;48.80;;;;;;1526819;76;737;-60
2021/09/10 03:32:18;;;;;;;;;;;24.40;48.90;;;;;;1537584;76;762;-61
2021/09/10 03:34:21;;;;;;;;;;;24.30;49.00;;;;;;1534436;76;1150;-60
2021/09/10 03:36:23;;;;;;;;;;;24.30;49.00;;;;;;1536511;76;769;-59
2021/09/10 03:38:25;;;;;;;;;;;24.40;49.00;;;;;;1532269;76;674;-60
2021/09/10 03:40:31;;;;;;;;;;;24.30;49.20;;;;;;1528961;76;1935;-61
2021/09/10 03:42:30;;;;;;;;;;;24.40;49.20;;;;;;1533367;75;1008;-61
2021/09/10 03:44:32;;;;;;;;;;;24.30;49.20;;;;;;1525561;76;1162;-59
2021/09/10 03:46:34;;;;;;;;;;;24.30;49.30;;;;;;1532679;76;736;-60
2021/09/10 03:48:36;;;;;;;;;;;24.40;49.30;;;;;;1524323;75;812;-59
2021/09/10 03:50:38;;;;;;;;;;;24.30;49.30;;;;;;1520514;75;734;-60
2021/09/10 03:52:39;;;;;;;;;;;24.40;49.30;;;;;;1533511;76;783;-58
2021/09/10 03:54:41;;;;;;;;;;;24.30;49.40;;;;;;1532913;76;1116;-60
2021/09/10 03:56:43;;;;;;;;;;;24.30;49.40;;;;;;1530754;76;810;-59
2021/09/10 03:58:45;;;;;;;;;;;24.30;49.40;;;;;;1531744;76;826;-60
2021/09/10 04:00:47;;;;;;;;;;;24.40;49.40;;;;;;1529208;76;1951;-60
2021/09/10 04:02:49;;;;;;;;;;;24.30;49.50;;;;;;1530771;76;737;-60
2021/09/10 04:04:51;;;;;;;;;;;24.30;49.50;;;;;;1526999;76;1111;-60
2021/09/10 04:06:53;;;;;;;;;;;24.30;49.60;;;;;;1527127;76;659;-59
2021/09/10 04:08:54;;;;;;;;;;;24.30;49.60;;;;;;1534456;76;802;-59
2021/09/10 04:10:56;;;;;;;;;;;24.30;49.60;;;;;;1535873;76;754;-59
2021/09/10 04:12:58;;;;;;;;;;;24.20;49.50;;;;;;1532015;76;1150;-60
2021/09/10 04:15:00;;;;;;;;;;;24.30;49.50;;;;;;1530435;76;746;-60
2021/09/10 04:17:02;;;;;;;;;;;24.30;49.60;;;;;;1530304;76;786;-60
2021/09/10 04:19:04;;;;;;;;;;;24.30;49.60;;;;;;1533452;76;704;-60
2021/09/10 04:21:06;;;;;;;;;;;24.20;49.50;;;;;;1531213;76;1967;-60
2021/09/10 04:23:08;;;;;;;;;;;24.30;49.70;;;;;;1533995;76;1135;-60
2021/09/10 04:25:10;;;;;;;;;;;24.30;49.70;;;;;;1532247;76;699;-59
2021/09/10 04:27:11;;;;;;;;;;;24.30;49.70;;;;;;1537081;75;811;-60
2021/09/10 04:29:13;;;;;;;;;;;24.20;49.60;;;;;;1536705;76;800;-61
2021/09/10 04:31:15;;;;;;;;;;;24.20;49.60;;;;;;1537787;76;801;-60
2021/09/10 04:33:20;;;;;;;;;;;24.20;49.50;;;;;;1543879;76;1130;-61
2021/09/10 04:35:21;;;;;;;;;;;24.20;49.60;;;;;;1544270;76;1478;-60
2021/09/10 04:37:23;;;;;;;;;;;24.20;49.60;;;;;;1539423;76;773;-59
2021/09/10 04:39:25;;;;;;;;;;;24.30;49.70;;;;;;1534439;76;1918;-59
2021/09/10 04:41:27;;;;;;;;;;;24.30;49.80;;;;;;1538075;76;713;-62
2021/09/10 04:43:29;;;;;;;;;;;24.30;49.80;;;;;;1540920;76;1146;-62
2021/09/10 04:45:31;;;;;;;;;;;24.20;49.70;;;;;;1543972;76;777;-61
2021/09/10 04:47:33;;;;;;;;;;;24.30;49.80;;;;;;1540946;76;728;-61
2021/09/10 04:49:35;;;;;;;;;;;24.20;49.70;;;;;;1538976;76;701;-62
2021/09/10 04:51:37;;;;;;;;;;;24.20;49.70;;;;;;1528954;76;734;-61
2021/09/10 04:53:39;;;;;;;;;;;24.20;49.60;;;;;;1537610;76;1079;-61
2021/09/10 04:55:41;;;;;;;;;;;24.20;49.60;;;;;;1531757;76;833;-60
2021/09/10 04:57:43;;;;;;;;;;;24.30;49.80;;;;;;1540015;76;735;-62
2021/09/10 04:59:45;;;;;;;;;;;24.20;49.70;;;;;;1533701;76;1948;-60
2021/09/10 05:01:47;;;;;;;;;;;24.20;49.70;;;;;;1535606;76;752;-60
2021/09/10 05:03:49;;;;;;;;;;;24.20;49.70;;;;;;1543989;76;1188;-61
2021/09/10 05:05:51;;;;;;;;;;;24.20;49.60;;;;;;1535366;76;793;-60
2021/09/10 05:07:54;;;;;;;;;;;24.20;49.60;;;;;;1533739;76;677;-60
2021/09/10 05:09:56;;;;;;;;;;;24.20;49.70;;;;;;1532867;76;757;-61
2021/09/10 05:11:58;;;;;;;;;;;24.20;49.70;;;;;;1537566;76;780;-61
2021/09/10 05:14:00;;;;;;;;;;;24.20;49.60;;;;;;1530561;76;1176;-60
2021/09/10 05:16:02;;;;;;;;;;;24.20;49.70;;;;;;1543323;76;725;-61
2021/09/10 05:18:03;;;;;;;;;;;24.20;49.70;;;;;;1541787;76;801;-59
2021/09/10 05:20:07;;;;;;;;;;;24.20;49.70;;;;;;1534849;76;1928;-59
2021/09/10 05:22:09;;;;;;;;;;;24.20;49.70;;;;;;1534877;76;769;-59
2021/09/10 05:24:11;;;;;;;;;;;24.20;49.80;;;;;;1543038;76;1130;-59
2021/09/10 05:26:13;;;;;;;;;;;24.20;49.80;;;;;;1543969;76;760;-60
2021/09/10 05:28:15;;;;;;;;;;;24.30;50.00;;;;;;1538105;76;751;-59
2021/09/10 05:30:17;;;;;;;;;;;24.20;49.70;;;;;;1535724;76;768;-61
2021/09/10 05:32:19;;;;;;;;;;;24.20;49.70;;;;;;1533537;76;880;-60
2021/09/10 05:34:21;;;;;;;;;;;24.20;49.70;;;;;;1525193;76;1122;-59
2021/09/10 05:36:23;;;;;;;;;;;24.20;49.90;;;;;;1534173;76;664;-60
2021/09/10 05:38:25;;;;;;;;;;;24.20;49.80;;;;;;1527883;76;710;-60
2021/09/10 05:40:27;;;;;;;;;;;24.20;49.90;;;;;;1527760;76;1953;-58
2021/09/10 05:42:28;;;;;;;;;;;24.20;49.90;;;;;;1528104;76;822;-60
2021/09/10 05:44:30;;;;;;;;;;;24.20;49.90;;;;;;1529202;76;1152;-59
2021/09/10 05:46:32;;;;;;;;;;;24.20;49.80;;;;;;1530851;76;739;-60
2021/09/10 05:48:35;;;;;;;;;;;24.20;50.00;;;;;;1534293;76;746;-61
2021/09/10 05:50:37;;;;;;;;;;;24.20;50.10;;;;;;1530079;76;759;-60
2021/09/10 05:52:39;;;;;;;;;;;24.30;50.20;;;;;;1526980;76;676;-59
2021/09/10 05:54:41;;;;;;;;;;;24.20;50.10;;;;;;1517477;76;1087;-58
2021/09/10 05:56:43;;;;;;;;;;;24.40;50.20;;;;;;1525199;76;827;-60
2021/09/10 05:58:44;;;;;;;;;;;24.40;49.80;;;;;;1515370;76;805;-60
2021/09/10 06:00:46;;;;;;;;;;;24.30;49.40;;;;;;1519679;76;1942;-60
2021/09/10 06:02:48;;;;;;;;;;;24.30;49.30;;;;;;1525051;76;725;-57
2021/09/10 06:04:50;;;;;;;;;;;24.30;49.20;;;;;;1530121;76;1009;-59
2021/09/10 06:06:52;;;;;;;;;;;24.30;49.00;;;;;;1528048;76;828;-57
2021/09/10 06:08:54;;;;;;;;;;;24.20;48.80;;;;;;1544350;76;716;-58
2021/09/10 06:10:56;;;;;;;;;;;24.20;48.80;;;;;;1540689;76;659;-60
2021/09/10 06:12:57;;;;;;;;;;;24.20;48.70;;;;;;1537175;76;1162;-60
2021/09/10 06:14:59;;;;;;;;;;;24.20;48.60;;;;;;1526262;76;792;-59
2021/09/10 06:17:01;;;;;;;;;;;24.20;48.80;;;;;;1531384;76;813;-59
2021/09/10 06:19:03;;;;;;;;;;;24.20;48.90;;;;;;1546015;76;797;-59
2021/09/10 06:21:05;;;;;;;;;;;24.20;48.90;;;;;;1537100;76;1944;-57
2021/09/10 06:23:07;;;;;;;;;;;24.20;49.00;;;;;;1535743;76;1142;-57
2021/09/10 06:25:09;;;;;;;;;;;24.20;48.80;;;;;;1539647;76;777;-57
2021/09/10 06:27:11;;;;;;;;;;;24.20;48.70;;;;;;1524494;76;710;-57
2021/09/10 06:29:13;;;;;;;;;;;24.10;48.70;;;;;;1534986;75;765;-56
2021/09/10 06:31:15;;;;;;;;;;;24.10;48.60;;;;;;1542107;76;776;-56
2021/09/10 06:33:17;;;;;;;;;;;24.20;48.70;;;;;;1538683;76;1137;-59
2021/09/10 06:35:19;;;;;;;;;;;24.10;48.80;;;;;;1538454;76;784;-58
2021/09/10 06:37:22;;;;;;;;;;;24.10;48.80;;;;;;1530280;76;760;-59
2021/09/10 06:39:24;;;;;;;;;;;24.00;48.70;;;;;;1540527;76;752;-58
2021/09/10 06:41:25;;;;;;;;;;;24.10;48.90;;;;;;1535441;76;1948;-59
2021/09/10 06:43:27;;;;;;;;;;;24.00;48.70;;;;;;1529273;76;1134;-57
2021/09/10 06:45:29;;;;;;;;;;;24.00;48.80;;;;;;1530225;76;730;-57
2021/09/10 06:47:31;;;;;;;;;;;24.10;49.00;;;;;;1539864;76;808;-59
2021/09/10 06:49:33;;;;;;;;;;;24.10;49.10;;;;;;1528658;76;774;-59
2021/09/10 06:51:35;;;;;;;;;;;24.10;49.20;;;;;;1533556;76;837;-57
2021/09/10 06:53:37;;;;;;;;;;;24.00;49.10;;;;;;1535841;76;1118;-57
2021/09/10 06:55:39;;;;;;;;;;;24.00;49.30;;;;;;1525313;75;808;-56
2021/09/10 06:57:41;;;;;;;;;;;24.10;49.60;;;;;;1528842;76;736;-59
2021/09/10 06:59:42;;;;;;;;;;;24.20;49.70;;;;;;1521434;76;803;-59
2021/09/10 07:01:44;;;;;;;;;;;24.10;49.80;;;;;;1528525;75;1938;-58
2021/09/10 07:03:46;;;;;;;;;;;24.20;49.70;;;;;;1521094;75;1148;-58
2021/09/10 07:05:48;;;;;;;;;;;24.20;49.70;;;;;;1529414;75;847;-57
2021/09/10 07:07:52;;;;;;;;;;;24.20;49.60;;;;;;1527922;76;798;-57
2021/09/10 07:09:54;;;;;;;;;;;24.30;49.70;;;;;;1535312;73;228179;-68
2021/09/10 07:11:55;;;;;;;;;;;24.30;49.50;;;;;;1578487;73;723;-70
2021/09/10 07:13:57;;;;;;;;;;;24.30;49.70;;;;;;1580732;74;771;-70
2021/09/10 07:15:59;;;;;;;;;;;24.40;49.50;;;;;;1567818;74;706;-69
2021/09/10 07:18:01;;;;;;;;;;;24.40;49.60;;;;;;1577637;74;698;-70
2021/09/10 07:20:03;;;;;;;;;;;24.40;49.50;;;;;;1578019;74;1340;-70
2021/09/10 07:22:05;;;;;;;;;;;24.50;49.40;;;;;;1587577;73;1930;-70
2021/09/10 07:24:07;;;;;;;;;;;24.50;49.40;;;;;;1591804;73;779;-70
2021/09/10 07:26:09;;;;;;;;;;;24.50;49.40;;;;;;1604553;73;700;-70
2021/09/10 07:28:11;;;;;;;;;;;24.60;49.30;;;;;;1603116;73;748;-70
2021/09/10 07:30:13;;;;;;;;;;;24.60;49.20;;;;;;1588848;74;1140;-70
2021/09/10 07:32:15;;;;;;;;;;;24.60;49.00;;;;;;1589459;73;764;-71
2021/09/10 07:34:17;;;;;;;;;;;24.60;48.90;;;;;;1604004;73;777;-70
2021/09/10 07:36:20;;;;;;;;;;;24.70;49.00;;;;;;1586325;73;765;-70
2021/09/10 07:38:22;;;;;;;;;;;24.70;48.80;;;;;;1601245;73;770;-67
2021/09/10 07:40:24;;;;;;;;;;;24.70;48.70;;;;;;1603531;73;1127;-68
2021/09/10 07:42:26;;;;;;;;;;;24.70;48.60;;;;;;1596543;73;1943;-69
2021/09/10 07:44:28;;;;;;;;;;;24.70;48.60;;;;;;1593879;73;731;-68
2021/09/10 07:46:29;;;;;;;;;;;24.70;48.50;;;;;;1595878;73;733;-71
2021/09/10 07:48:31;;;;;;;;;;;24.80;48.40;;;;;;1602280;73;802;-69
2021/09/10 07:50:33;;;;;;;;;;;24.80;48.20;;;;;;1598932;73;1174;-70
2021/09/10 07:52:35;;;;;;;;;;;24.90;48.20;;;;;;1592959;73;792;-70
2021/09/10 07:54:37;;;;;;;;;;;24.80;48.10;;;;;;1591131;73;702;-68
2021/09/10 07:56:39;;;;;;;;;;;24.80;48.00;;;;;;1605723;73;778;-68
2021/09/10 07:58:41;;;;;;;;;;;24.90;48.10;;;;;;1610618;73;780;-69
2021/09/10 08:00:43;;;;;;;;;;;25.00;48.00;;;;;;1599715;72;1949;-70
2021/09/10 08:02:45;;;;;;;;;;;25.00;47.80;;;;;;1593705;73;775;-69
2021/09/10 08:04:46;;;;;;;;;;;25.00;47.80;;;;;;1618183;73;736;-69
2021/09/10 08:06:48;;;;;;;;;;;25.00;47.80;;;;;;1595577;73;679;-68
2021/09/10 08:08:50;;;;;;;;;;;25.00;47.80;;;;;;1604428;73;732;-68
2021/09/10 08:10:52;;;;;;;;;;;25.00;47.70;;;;;;1598074;73;1127;-69
2021/09/10 08:12:54;;;;;;;;;;;25.00;47.60;;;;;;1590814;73;721;-68
2021/09/10 08:14:56;;;;;;;;;;;25.00;47.60;;;;;;1592502;73;806;-69
2021/09/10 08:16:58;;;;;;;;;;;25.10;47.60;;;;;;1601381;73;779;-69
2021/09/10 08:19:00;;;;;;;;;;;25.10;47.50;;;;;;1587240;73;688;-68
2021/09/10 08:21:02;;;;;;;;;;;25.10;47.40;;;;;;1595944;73;1945;-69
2021/09/10 08:23:04;;;;;;;;;;;25.10;47.40;;;;;;1599187;73;829;-68
2021/09/10 08:25:06;;;;;;;;;;;25.10;47.50;;;;;;1593667;73;772;-68
2021/09/10 08:27:08;;;;;;;;;;;25.30;47.30;;;;;;1598099;73;736;-69
2021/09/10 08:29:10;;;;;;;;;;;25.20;47.20;;;;;;1603101;73;809;-68
2021/09/10 08:31:13;;;;;;;;;;;25.20;47.20;;;;;;1588982;73;1110;-69
2021/09/10 08:33:15;;;;;;;;;;;25.20;47.20;;;;;;1601297;73;683;-69
2021/09/10 08:35:17;;;;;;;;;;;25.30;47.10;;;;;;1610862;73;730;-68
2021/09/10 08:37:19;;;;;;;;;;;25.30;47.10;;;;;;1599968;74;751;-69
2021/09/10 08:39:20;;;;;;;;;;;25.30;47.10;;;;;;1595023;73;707;-68
2021/09/10 08:41:23;;;;;;;;;;;25.30;47.00;;;;;;1595467;73;1948;-67
2021/09/10 08:43:25;;;;;;;;;;;25.30;46.90;;;;;;1590535;73;708;-68
2021/09/10 08:45:27;;;;;;;;;;;25.20;47.00;;;;;;1597547;73;800;-66
2021/09/10 08:47:29;;;;;;;;;;;25.30;47.00;;;;;;1598237;73;765;-69
2021/09/10 08:49:31;;;;;;;;;;;25.30;46.70;;;;;;1600607;73;743;-67
2021/09/10 08:51:33;;;;;;;;;;;25.40;46.40;;;;;;1589864;73;1112;-69
2021/09/10 08:53:34;;;;;;;;;;;25.30;46.30;;;;;;1600780;73;747;-69
2021/09/10 08:55:36;;;;;;;;;;;25.30;46.50;;;;;;1597480;73;661;-68
2021/09/10 08:57:45;;;;;;;;;;;25.30;46.40;;;;;;1598558;73;626;-69
2021/09/10 08:59:47;;;;;;;;;;;25.30;46.50;;;;;;1598506;73;1145;-69
2021/09/10 09:01:50;;;;;;;;;;;25.30;46.40;;;;;;1577415;74;1941;-68
2021/09/10 09:03:51;;;;;;;;;;;25.30;46.40;;;;;;1592028;73;722;-67
2021/09/10 09:05:53;;;;;;;;;;;25.30;46.30;;;;;;1575516;74;744;-66
2021/09/10 09:08:05;;;;;;;;;;;25.30;46.30;;;;;;1609996;73;777;-66
2021/09/10 09:10:08;;;;;;;;;;;25.30;46.30;;;;;;1606218;72;1154;-66
2021/09/10 09:12:23;;;;;;;;;;;25.30;46.30;;;;;;1599851;73;782;-65
2021/09/10 09:14:26;;;;;;;;;;;25.30;46.30;;;;;;1605960;73;773;-67
2021/09/10 09:16:30;;;;;;;;;;;25.30;46.30;;;;;;1590672;73;1840;-66
2021/09/10 09:18:39;;;;;;;;;;;25.40;46.30;;;;;;1605109;73;923;-66
2021/09/10 09:20:42;;;;;;;;;;;25.30;46.20;;;;;;1602658;73;1154;-66
2021/09/10 09:22:54;;;;;;;;;;;25.40;45.90;;;;;;1604943;73;1938;-67
2021/09/10 09:24:57;;;;;;;;;;;25.40;46.10;;;;;;1597608;73;796;-67
2021/09/10 09:26:59;;;;;;;;;;;25.30;46.00;;;;;;1596460;73;1999;-67
2021/09/10 09:29:03;;;;;;;;;;;25.40;46.10;;;;;;1600654;74;967;-66
2021/09/10 09:31:05;;;;;;;;;;;25.30;46.10;;;;;;1583613;74;1828;-66
2021/09/10 09:33:07;;;;;;;;;;;25.30;46.10;;;;;;1588317;73;652;-67
2021/09/10 09:35:10;;;;;;;;;;;25.40;46.00;;;;;;1594354;73;687;-67
2021/09/10 09:37:12;;;;;;;;;;;25.30;46.10;;;;;;1577202;74;957;-66
2021/09/10 09:39:13;;;;;;;;;;;25.30;46.10;;;;;;1591991;73;922;-66
2021/09/10 09:41:16;;;;;;;;;;;25.30;46.20;;;;;;1601283;72;1934;-66
2021/09/10 09:43:19;;;;;;;;;;;25.30;46.10;;;;;;1602204;73;803;-66
2021/09/10 09:45:24;;;;;;;;;;;25.40;46.10;;;;;;1589446;73;821;-66
2021/09/10 09:47:25;;;;;;;;;;;25.30;46.10;;;;;;1596929;73;1700;-66
2021/09/10 09:49:26;;;;;;;;;;;25.30;46.00;;;;;;1591662;73;786;-66
2021/09/10 09:51:28;;;;;;;;;;;25.30;46.00;;;;;;1597008;73;1127;-67
2021/09/10 09:53:30;;;;;;;;;;;25.30;46.00;;;;;;1592650;73;705;-67
2021/09/10 09:55:35;;;;;;;;;;;25.30;46.10;;;;;;1600817;73;820;-67
2021/09/10 09:57:37;;;;;;;;;;;25.40;46.10;;;;;;1601421;73;769;-69
2021/09/10 09:59:39;;;;;;;;;;;25.30;46.10;;;;;;1596802;73;1126;-67
2021/09/10 10:01:41;;;;;;;;;;;25.30;46.10;;;;;;1597570;73;1938;-69
2021/09/10 10:03:43;;;;;;;;;;;25.30;46.00;;;;;;1608173;73;681;-69
2021/09/10 10:05:47;;;;;;;;;;;25.30;46.00;;;;;;1602052;73;761;-66
2021/09/10 10:07:50;;;;;;;;;;;25.40;46.00;;;;;;1564711;74;1234;-69
2021/09/10 10:09:52;;;;;;;;;;;25.30;46.10;;;;;;1599019;73;1140;-69
2021/09/10 10:11:55;;;;;;;;;;;25.30;46.20;;;;;;1591314;73;839;-70
2021/09/10 10:13:59;;;;;;;;;;;25.40;46.10;;;;;;1588630;74;861;-69
2021/09/10 10:16:01;;;;;;;;;;;25.40;46.10;;;;;;1586857;74;875;-68
2021/09/10 10:18:02;;;;;;;;;;;25.40;46.10;;;;;;1594919;74;807;-68
2021/09/10 10:20:05;;;;;;;;;;;25.30;46.30;;;;;;1583390;73;1153;-67
2021/09/10 10:22:07;;;;;;;;;;;25.20;46.30;;;;;;1584782;74;1933;-68
2021/09/10 10:24:09;;;;;;;;;;;25.20;46.40;;;;;;1584191;74;756;-72
2021/09/10 10:26:12;;;;;;;;;;;25.30;46.30;;;;;;1589647;73;710;-68
2021/09/10 10:28:16;;;;;;;;;;;25.20;46.40;;;;;;1589385;74;754;-68
2021/09/10 10:30:19;;;;;;;;;;;25.40;46.50;;;;;;1584505;73;1551;-68
2021/09/10 10:32:32;;;;;;;;;;;25.30;46.50;;;;;;1598935;73;744;-67
2021/09/10 10:34:35;;;;;;;;;;;25.30;46.50;;;;;;1590840;73;1818;-68
2021/09/10 10:36:37;;;;;;;;;;;25.30;46.60;;;;;;1592175;73;881;-69
2021/09/10 10:38:41;;;;;;;;;;;25.30;46.60;;;;;;1594480;73;750;-68
2021/09/10 10:40:44;;;;;;;;;;;25.40;46.50;;;;;;1586006;73;1147;-68
2021/09/10 10:42:49;;;;;;;;;;;25.30;46.50;;;;;;1606451;73;1931;-70
2021/09/10 10:44:52;;;;;;;;;;;25.30;46.50;;;;;;1595409;73;730;-68
2021/09/10 10:47:03;;;;;;;;;;;25.20;46.50;;;;;;1597862;73;782;-69
2021/09/10 10:49:06;;;;;;;;;;;25.30;46.30;;;;;;1590030;73;667;-68
2021/09/10 10:51:21;;;;;;;;;;;25.30;46.50;;;;;;1584092;73;1202;-69
2021/09/10 10:53:23;;;;;;;;;;;25.20;46.70;;;;;;1585093;74;692;-70
2021/09/10 10:55:26;;;;;;;;;;;25.30;46.60;;;;;;1602677;73;746;-69
2021/09/10 10:57:28;;;;;;;;;;;25.00;46.80;;;;;;1599512;73;780;-69
2021/09/10 10:59:29;;;;;;;;;;;25.00;47.10;;;;;;1595995;73;787;-70
2021/09/10 11:01:31;;;;;;;;;;;25.00;47.30;;;;;;1597620;73;1111;-68
2021/09/10 11:03:34;;;;;;;;;;;25.10;47.20;;;;;;1595650;73;1952;-68
2021/09/10 11:05:36;;;;;;;;;;;25.10;47.10;;;;;;1595110;74;772;-70
2021/09/10 11:07:38;;;;;;;;;;;25.20;47.20;;;;;;1593976;73;815;-69
2021/09/10 11:09:40;;;;;;;;;;;25.10;47.50;;;;;;1600700;74;1130;-69
2021/09/10 11:11:42;;;;;;;;;;;25.10;47.60;;;;;;1586475;74;843;-69
2021/09/10 11:13:45;;;;;;;;;;;25.10;47.40;;;;;;1593539;73;921;-70
2021/09/10 11:15:47;;;;;;;;;;;25.20;47.50;;;;;;1590851;73;724;-69
2021/09/10 11:17:53;;;;;;;;;;;25.20;47.50;;;;;;1592060;73;667;-70
2021/09/10 11:19:58;;;;;;;;;;;25.10;47.60;;;;;;1594976;73;1103;-69
2021/09/10 11:22:02;;;;;;;;;;;25.10;47.40;;;;;;1603367;73;1926;-69
2021/09/10 11:24:08;;;;;;;;;;;25.00;47.50;;;;;;1588413;73;873;-68
2021/09/10 11:26:10;;;;;;;;;;;25.10;47.50;;;;;;1603395;73;842;-70
2021/09/10 11:28:12;;;;;;;;;;;25.10;47.30;;;;;;1590238;73;772;-69
2021/09/10 11:30:14;;;;;;;;;;;25.10;47.40;;;;;;1586408;73;1110;-69
2021/09/10 11:32:19;;;;;;;;;;;25.10;47.40;;;;;;1600652;73;746;-69
2021/09/10 11:34:35;;;;;;;;;;;25.10;47.30;;;;;;1592513;74;763;-69
2021/09/10 11:36:36;;;;;;;;;;;25.00;47.40;;;;;;1589064;74;770;-69
2021/09/10 11:38:38;;;;;;;;;;;25.10;47.50;;;;;;1595597;73;928;-69
2021/09/10 11:40:50;;;;;;;;;;;25.10;47.60;;;;;;1598757;73;1151;-69
2021/09/10 11:42:52;;;;;;;;;;;25.00;47.70;;;;;;1595617;73;1903;-68
2021/09/10 11:45:00;;;;;;;;;;;25.10;47.70;;;;;;1567520;74;939;-67
2021/09/10 11:47:02;;;;;;;;;;;25.10;47.60;;;;;;1586817;73;813;-69
2021/09/10 11:49:04;;;;;;;;;;;25.10;47.70;;;;;;1604940;73;700;-69
2021/09/10 11:51:06;;;;;;;;;;;25.20;47.60;;;;;;1598334;73;1125;-67
2021/09/10 11:53:10;;;;;;;;;;;25.30;47.30;;;;;;1602121;73;720;-69
2021/09/10 11:55:15;;;;;;;;;;;25.10;47.30;;;;;;1591771;73;1908;-68
2021/09/10 11:57:20;;;;;;;;;;;25.20;47.20;;;;;;1594448;73;767;-70
2021/09/10 11:59:24;;;;;;;;;;;25.20;47.20;;;;;;1597654;73;804;-69
2021/09/10 12:01:28;;;;;;;;;;;25.20;47.20;;;;;;1599495;73;1116;-69
2021/09/10 12:03:30;;;;;;;;;;;25.10;47.30;;;;;;1603000;73;1961;-68
2021/09/10 12:05:32;;;;;;;;;;;25.10;47.30;;;;;;1598117;73;674;-69
2021/09/10 12:07:35;;;;;;;;;;;25.10;47.30;;;;;;1588068;73;748;-69
2021/09/10 12:09:40;;;;;;;;;;;25.10;47.40;;;;;;1588218;73;771;-68